sensor_id;sensor_type;location;lat;lon;timestamp;P1;durP1;ratioP1;P2;durP2;ratioP2
13269;SDS011;6703;51.994;7.570;2024-01-30T00:01:24;32.17;;;17.40;;
13269;SDS011;6703;51.994;7.570;2024-01-30T00:03:52;28.63;;;16.77;;
13269;SDS011;6703;51.994;7.570;2024-01-30T00:09:22;27.80;;;16.08;;
13269;SDS011;6703;51.994;7.570;2024-01-30T00:11:50;28.77;;;17.75;;
13269;SDS011;6703;51.994;7.570;2024-01-30T00:14:18;27.77;;;17.10;;
13269;SDS011;6703;51.994;7.570;2024-01-30T00:16:47;34.80;;;17.80;;
13269;SDS011;6703;51.994;7.570;2024-01-30T00:19:15;27.48;;;18.33;;
13269;SDS011;6703;51.994;7.570;2024-01-30T00:21:43;27.88;;;16.70;;
13269;SDS011;6703;51.994;7.570;2024-01-30T00:24:11;34.70;;;19.15;;
13269;SDS011;6703;51.994;7.570;2024-01-30T00:26:39;34.33;;;17.45;;
13269;SDS011;6703;51.994;7.570;2024-01-30T00:29:07;26.73;;;17.50;;
13269;SDS011;6703;51.994;7.570;2024-01-30T00:31:35;30.92;;;17.48;;
13269;SDS011;6703;51.994;7.570;2024-01-30T00:34:08;33.30;;;18.13;;
13269;SDS011;6703;51.994;7.570;2024-01-30T00:36:36;28.70;;;17.33;;
13269;SDS011;6703;51.994;7.570;2024-01-30T00:39:04;30.48;;;18.25;;
13269;SDS011;6703;51.994;7.570;2024-01-30T00:41:35;29.63;;;17.67;;
13269;SDS011;6703;51.994;7.570;2024-01-30T00:44:03;30.23;;;16.67;;
13269;SDS011;6703;51.994;7.570;2024-01-30T00:46:31;24.73;;;15.57;;
13269;SDS011;6703;51.994;7.570;2024-01-30T00:48:59;26.55;;;17.27;;
13269;SDS011;6703;51.994;7.570;2024-01-30T00:51:29;26.95;;;16.98;;
13269;SDS011;6703;51.994;7.570;2024-01-30T00:53:57;27.83;;;16.67;;
13269;SDS011;6703;51.994;7.570;2024-01-30T00:56:25;26.23;;;16.20;;
13269;SDS011;6703;51.994;7.570;2024-01-30T00:58:53;25.83;;;15.73;;
13269;SDS011;6703;51.994;7.570;2024-01-30T01:01:21;25.30;;;15.15;;
13269;SDS011;6703;51.994;7.570;2024-01-30T01:03:50;19.33;;;12.83;;
13269;SDS011;6703;51.994;7.570;2024-01-30T01:06:18;21.70;;;13.18;;
13269;SDS011;6703;51.994;7.570;2024-01-30T01:08:47;21.73;;;12.13;;
13269;SDS011;6703;51.994;7.570;2024-01-30T01:11:15;22.80;;;14.00;;
13269;SDS011;6703;51.994;7.570;2024-01-30T01:13:43;21.88;;;13.45;;
13269;SDS011;6703;51.994;7.570;2024-01-30T01:16:11;25.40;;;14.68;;
13269;SDS011;6703;51.994;7.570;2024-01-30T01:18:39;26.33;;;15.10;;
13269;SDS011;6703;51.994;7.570;2024-01-30T01:21:08;25.77;;;16.15;;
13269;SDS011;6703;51.994;7.570;2024-01-30T01:23:36;24.15;;;15.65;;
13269;SDS011;6703;51.994;7.570;2024-01-30T01:26:06;22.13;;;15.20;;
13269;SDS011;6703;51.994;7.570;2024-01-30T01:28:36;25.27;;;15.40;;
13269;SDS011;6703;51.994;7.570;2024-01-30T01:31:04;24.35;;;14.95;;
13269;SDS011;6703;51.994;7.570;2024-01-30T01:33:32;23.40;;;14.05;;
13269;SDS011;6703;51.994;7.570;2024-01-30T01:36:00;21.33;;;14.40;;
13269;SDS011;6703;51.994;7.570;2024-01-30T01:38:29;24.60;;;15.15;;
13269;SDS011;6703;51.994;7.570;2024-01-30T01:40:57;28.70;;;14.40;;
13269;SDS011;6703;51.994;7.570;2024-01-30T01:43:27;25.10;;;15.30;;
13269;SDS011;6703;51.994;7.570;2024-01-30T01:45:54;24.07;;;14.10;;
13269;SDS011;6703;51.994;7.570;2024-01-30T01:48:22;25.65;;;15.27;;
13269;SDS011;6703;51.994;7.570;2024-01-30T01:50:51;25.10;;;14.80;;
13269;SDS011;6703;51.994;7.570;2024-01-30T01:53:20;20.90;;;13.95;;
13269;SDS011;6703;51.994;7.570;2024-01-30T01:55:47;24.77;;;15.40;;
13269;SDS011;6703;51.994;7.570;2024-01-30T01:58:16;25.15;;;14.98;;
13269;SDS011;6703;51.994;7.570;2024-01-30T02:00:45;26.33;;;16.98;;
13269;SDS011;6703;51.994;7.570;2024-01-30T02:03:14;24.45;;;14.73;;
13269;SDS011;6703;51.994;7.570;2024-01-30T02:05:48;25.10;;;15.73;;
13269;SDS011;6703;51.994;7.570;2024-01-30T02:08:15;29.55;;;15.85;;
13269;SDS011;6703;51.994;7.570;2024-01-30T02:10:43;26.30;;;15.48;;
13269;SDS011;6703;51.994;7.570;2024-01-30T02:13:11;26.48;;;15.60;;
13269;SDS011;6703;51.994;7.570;2024-01-30T02:15:39;27.70;;;14.77;;
13269;SDS011;6703;51.994;7.570;2024-01-30T02:18:09;25.75;;;14.40;;
13269;SDS011;6703;51.994;7.570;2024-01-30T02:23:32;23.90;;;15.23;;
13269;SDS011;6703;51.994;7.570;2024-01-30T02:26:01;23.10;;;14.40;;
13269;SDS011;6703;51.994;7.570;2024-01-30T02:28:29;23.08;;;14.23;;
13269;SDS011;6703;51.994;7.570;2024-01-30T02:30:57;25.80;;;14.85;;
13269;SDS011;6703;51.994;7.570;2024-01-30T02:33:25;24.73;;;14.63;;
13269;SDS011;6703;51.994;7.570;2024-01-30T02:35:53;28.15;;;15.15;;
13269;SDS011;6703;51.994;7.570;2024-01-30T02:38:22;26.40;;;15.10;;
13269;SDS011;6703;51.994;7.570;2024-01-30T02:40:50;26.90;;;15.23;;
13269;SDS011;6703;51.994;7.570;2024-01-30T02:43:18;26.67;;;14.43;;
13269;SDS011;6703;51.994;7.570;2024-01-30T02:45:46;23.92;;;14.88;;
13269;SDS011;6703;51.994;7.570;2024-01-30T02:48:14;22.70;;;14.20;;
13269;SDS011;6703;51.994;7.570;2024-01-30T02:50:42;25.98;;;14.15;;
13269;SDS011;6703;51.994;7.570;2024-01-30T02:53:10;23.05;;;14.25;;
13269;SDS011;6703;51.994;7.570;2024-01-30T02:55:40;25.70;;;15.00;;
13269;SDS011;6703;51.994;7.570;2024-01-30T02:58:08;25.75;;;13.65;;
13269;SDS011;6703;51.994;7.570;2024-01-30T03:00:36;24.48;;;14.45;;
13269;SDS011;6703;51.994;7.570;2024-01-30T03:03:05;26.25;;;14.30;;
13269;SDS011;6703;51.994;7.570;2024-01-30T03:05:33;25.13;;;14.57;;
13269;SDS011;6703;51.994;7.570;2024-01-30T03:08:00;25.25;;;15.15;;
13269;SDS011;6703;51.994;7.570;2024-01-30T03:10:28;25.23;;;14.47;;
13269;SDS011;6703;51.994;7.570;2024-01-30T03:12:58;26.65;;;14.90;;
13269;SDS011;6703;51.994;7.570;2024-01-30T03:15:26;25.08;;;14.82;;
13269;SDS011;6703;51.994;7.570;2024-01-30T03:17:54;25.40;;;14.70;;
13269;SDS011;6703;51.994;7.570;2024-01-30T03:20:22;23.80;;;14.68;;
13269;SDS011;6703;51.994;7.570;2024-01-30T03:22:50;27.25;;;15.52;;
13269;SDS011;6703;51.994;7.570;2024-01-30T03:25:18;24.77;;;14.82;;
13269;SDS011;6703;51.994;7.570;2024-01-30T03:27:46;24.23;;;14.32;;
13269;SDS011;6703;51.994;7.570;2024-01-30T03:30:25;24.27;;;14.77;;
13269;SDS011;6703;51.994;7.570;2024-01-30T03:32:53;25.83;;;16.08;;
13269;SDS011;6703;51.994;7.570;2024-01-30T03:35:21;27.97;;;15.70;;
13269;SDS011;6703;51.994;7.570;2024-01-30T03:37:49;25.03;;;14.73;;
13269;SDS011;6703;51.994;7.570;2024-01-30T03:40:17;23.30;;;14.80;;
13269;SDS011;6703;51.994;7.570;2024-01-30T03:42:45;28.13;;;16.08;;
13269;SDS011;6703;51.994;7.570;2024-01-30T03:45:13;21.77;;;14.43;;
13269;SDS011;6703;51.994;7.570;2024-01-30T03:47:44;34.10;;;16.27;;
13269;SDS011;6703;51.994;7.570;2024-01-30T03:50:12;26.73;;;16.10;;
13269;SDS011;6703;51.994;7.570;2024-01-30T03:52:40;28.70;;;15.40;;
13269;SDS011;6703;51.994;7.570;2024-01-30T03:55:08;26.40;;;16.23;;
13269;SDS011;6703;51.994;7.570;2024-01-30T03:57:36;25.70;;;15.90;;
13269;SDS011;6703;51.994;7.570;2024-01-30T04:00:05;20.48;;;14.23;;
13269;SDS011;6703;51.994;7.570;2024-01-30T04:02:34;26.98;;;15.77;;
13269;SDS011;6703;51.994;7.570;2024-01-30T04:05:04;26.98;;;15.98;;
13269;SDS011;6703;51.994;7.570;2024-01-30T04:07:33;29.20;;;16.40;;
13269;SDS011;6703;51.994;7.570;2024-01-30T04:10:02;31.55;;;17.10;;
13269;SDS011;6703;51.994;7.570;2024-01-30T04:12:32;30.02;;;16.00;;
13269;SDS011;6703;51.994;7.570;2024-01-30T04:15:00;31.23;;;16.75;;
13269;SDS011;6703;51.994;7.570;2024-01-30T04:17:27;32.50;;;18.27;;
13269;SDS011;6703;51.994;7.570;2024-01-30T04:19:55;31.90;;;17.52;;
13269;SDS011;6703;51.994;7.570;2024-01-30T04:22:25;34.70;;;17.10;;
13269;SDS011;6703;51.994;7.570;2024-01-30T04:24:53;24.08;;;15.75;;
13269;SDS011;6703;51.994;7.570;2024-01-30T04:27:22;24.63;;;14.70;;
13269;SDS011;6703;51.994;7.570;2024-01-30T04:29:49;26.27;;;15.65;;
13269;SDS011;6703;51.994;7.570;2024-01-30T04:32:17;31.92;;;18.33;;
13269;SDS011;6703;51.994;7.570;2024-01-30T04:34:45;28.73;;;17.08;;
13269;SDS011;6703;51.994;7.570;2024-01-30T04:37:19;31.27;;;18.47;;
13269;SDS011;6703;51.994;7.570;2024-01-30T04:39:49;26.83;;;16.73;;
13269;SDS011;6703;51.994;7.570;2024-01-30T04:42:17;31.63;;;17.98;;
13269;SDS011;6703;51.994;7.570;2024-01-30T04:44:45;33.55;;;17.67;;
13269;SDS011;6703;51.994;7.570;2024-01-30T04:47:13;28.70;;;18.35;;
13269;SDS011;6703;51.994;7.570;2024-01-30T04:49:42;31.25;;;18.73;;
13269;SDS011;6703;51.994;7.570;2024-01-30T04:52:11;35.28;;;18.90;;
13269;SDS011;6703;51.994;7.570;2024-01-30T04:54:38;29.00;;;17.92;;
13269;SDS011;6703;51.994;7.570;2024-01-30T04:57:08;32.63;;;17.35;;
13269;SDS011;6703;51.994;7.570;2024-01-30T04:59:38;29.30;;;16.40;;
13269;SDS011;6703;51.994;7.570;2024-01-30T05:02:06;28.80;;;16.73;;
13269;SDS011;6703;51.994;7.570;2024-01-30T05:04:35;30.33;;;17.88;;
13269;SDS011;6703;51.994;7.570;2024-01-30T05:07:24;30.45;;;18.05;;
13269;SDS011;6703;51.994;7.570;2024-01-30T05:09:52;30.27;;;18.30;;
13269;SDS011;6703;51.994;7.570;2024-01-30T05:12:26;29.87;;;18.10;;
13269;SDS011;6703;51.994;7.570;2024-01-30T05:14:54;29.17;;;16.80;;
13269;SDS011;6703;51.994;7.570;2024-01-30T05:17:22;35.80;;;18.80;;
13269;SDS011;6703;51.994;7.570;2024-01-30T05:19:50;27.90;;;17.17;;
13269;SDS011;6703;51.994;7.570;2024-01-30T05:22:19;29.23;;;17.50;;
13269;SDS011;6703;51.994;7.570;2024-01-30T05:24:47;27.40;;;16.45;;
13269;SDS011;6703;51.994;7.570;2024-01-30T05:27:14;29.50;;;17.65;;
13269;SDS011;6703;51.994;7.570;2024-01-30T05:29:44;28.40;;;16.87;;
13269;SDS011;6703;51.994;7.570;2024-01-30T05:32:12;27.02;;;16.17;;
13269;SDS011;6703;51.994;7.570;2024-01-30T05:34:41;31.52;;;17.92;;
13269;SDS011;6703;51.994;7.570;2024-01-30T05:37:08;30.30;;;17.95;;
13269;SDS011;6703;51.994;7.570;2024-01-30T05:39:41;33.90;;;19.10;;
13269;SDS011;6703;51.994;7.570;2024-01-30T05:42:08;33.83;;;19.63;;
13269;SDS011;6703;51.994;7.570;2024-01-30T05:44:38;27.93;;;17.63;;
13269;SDS011;6703;51.994;7.570;2024-01-30T05:47:07;29.75;;;18.00;;
13269;SDS011;6703;51.994;7.570;2024-01-30T05:49:34;32.08;;;18.45;;
13269;SDS011;6703;51.994;7.570;2024-01-30T05:52:03;32.17;;;18.65;;
13269;SDS011;6703;51.994;7.570;2024-01-30T05:54:32;37.00;;;18.73;;
13269;SDS011;6703;51.994;7.570;2024-01-30T05:57:00;31.60;;;17.20;;
13269;SDS011;6703;51.994;7.570;2024-01-30T05:59:28;31.13;;;18.30;;
13269;SDS011;6703;51.994;7.570;2024-01-30T06:01:56;29.13;;;18.08;;
13269;SDS011;6703;51.994;7.570;2024-01-30T06:04:26;31.15;;;17.73;;
13269;SDS011;6703;51.994;7.570;2024-01-30T06:06:54;32.73;;;19.50;;
13269;SDS011;6703;51.994;7.570;2024-01-30T06:09:23;28.60;;;17.60;;
13269;SDS011;6703;51.994;7.570;2024-01-30T06:11:50;30.50;;;16.95;;
13269;SDS011;6703;51.994;7.570;2024-01-30T06:14:18;29.88;;;17.00;;
13269;SDS011;6703;51.994;7.570;2024-01-30T06:16:47;30.90;;;17.30;;
13269;SDS011;6703;51.994;7.570;2024-01-30T06:19:14;29.00;;;16.98;;
13269;SDS011;6703;51.994;7.570;2024-01-30T06:21:44;26.40;;;15.82;;
13269;SDS011;6703;51.994;7.570;2024-01-30T06:24:12;27.95;;;16.73;;
13269;SDS011;6703;51.994;7.570;2024-01-30T06:26:41;30.83;;;16.55;;
13269;SDS011;6703;51.994;7.570;2024-01-30T06:29:09;29.23;;;17.00;;
13269;SDS011;6703;51.994;7.570;2024-01-30T06:31:39;29.90;;;16.20;;
13269;SDS011;6703;51.994;7.570;2024-01-30T06:34:08;31.20;;;16.75;;
13269;SDS011;6703;51.994;7.570;2024-01-30T06:36:36;28.48;;;15.70;;
13269;SDS011;6703;51.994;7.570;2024-01-30T06:39:05;24.35;;;15.48;;
13269;SDS011;6703;51.994;7.570;2024-01-30T06:41:36;27.23;;;15.30;;
13269;SDS011;6703;51.994;7.570;2024-01-30T06:44:05;29.95;;;16.17;;
13269;SDS011;6703;51.994;7.570;2024-01-30T06:46:34;28.73;;;16.15;;
13269;SDS011;6703;51.994;7.570;2024-01-30T06:49:03;27.08;;;15.18;;
13269;SDS011;6703;51.994;7.570;2024-01-30T06:51:32;25.65;;;14.77;;
13269;SDS011;6703;51.994;7.570;2024-01-30T06:53:59;30.83;;;14.88;;
13269;SDS011;6703;51.994;7.570;2024-01-30T06:56:30;25.60;;;15.05;;
13269;SDS011;6703;51.994;7.570;2024-01-30T06:58:58;27.45;;;15.35;;
13269;SDS011;6703;51.994;7.570;2024-01-30T07:01:27;27.52;;;16.02;;
13269;SDS011;6703;51.994;7.570;2024-01-30T07:03:56;25.65;;;15.80;;
13269;SDS011;6703;51.994;7.570;2024-01-30T07:06:25;27.77;;;14.90;;
13269;SDS011;6703;51.994;7.570;2024-01-30T07:08:54;27.00;;;15.32;;
13269;SDS011;6703;51.994;7.570;2024-01-30T07:11:21;23.98;;;14.55;;
13269;SDS011;6703;51.994;7.570;2024-01-30T07:13:52;25.92;;;14.10;;
13269;SDS011;6703;51.994;7.570;2024-01-30T07:17:14;25.88;;;13.90;;
13269;SDS011;6703;51.994;7.570;2024-01-30T07:19:43;26.03;;;14.53;;
13269;SDS011;6703;51.994;7.570;2024-01-30T07:22:10;21.20;;;13.98;;
13269;SDS011;6703;51.994;7.570;2024-01-30T07:24:42;25.85;;;13.75;;
13269;SDS011;6703;51.994;7.570;2024-01-30T07:27:11;24.25;;;14.23;;
13269;SDS011;6703;51.994;7.570;2024-01-30T07:29:41;23.27;;;13.88;;
13269;SDS011;6703;51.994;7.570;2024-01-30T07:32:09;25.42;;;13.80;;
13269;SDS011;6703;51.994;7.570;2024-01-30T07:34:37;21.65;;;13.77;;
13269;SDS011;6703;51.994;7.570;2024-01-30T07:37:18;23.52;;;13.82;;
13269;SDS011;6703;51.994;7.570;2024-01-30T07:39:47;23.52;;;13.57;;
13269;SDS011;6703;51.994;7.570;2024-01-30T07:42:15;22.95;;;13.80;;
13269;SDS011;6703;51.994;7.570;2024-01-30T07:44:45;28.33;;;13.70;;
13269;SDS011;6703;51.994;7.570;2024-01-30T07:47:13;21.42;;;13.13;;
13269;SDS011;6703;51.994;7.570;2024-01-30T07:49:40;30.85;;;14.55;;
13269;SDS011;6703;51.994;7.570;2024-01-30T07:52:09;23.10;;;12.87;;
13269;SDS011;6703;51.994;7.570;2024-01-30T07:54:37;25.30;;;13.15;;
13269;SDS011;6703;51.994;7.570;2024-01-30T07:57:06;23.17;;;11.88;;
13269;SDS011;6703;51.994;7.570;2024-01-30T07:59:34;22.33;;;12.17;;
13269;SDS011;6703;51.994;7.570;2024-01-30T08:02:03;21.87;;;12.00;;
13269;SDS011;6703;51.994;7.570;2024-01-30T08:04:31;19.90;;;11.53;;
13269;SDS011;6703;51.994;7.570;2024-01-30T08:06:59;21.25;;;11.75;;
13269;SDS011;6703;51.994;7.570;2024-01-30T08:09:27;20.02;;;11.10;;
13269;SDS011;6703;51.994;7.570;2024-01-30T08:11:55;19.40;;;11.13;;
13269;SDS011;6703;51.994;7.570;2024-01-30T08:14:22;19.65;;;11.73;;
13269;SDS011;6703;51.994;7.570;2024-01-30T08:16:50;24.27;;;10.80;;
13269;SDS011;6703;51.994;7.570;2024-01-30T08:19:20;19.52;;;10.35;;
13269;SDS011;6703;51.994;7.570;2024-01-30T08:21:48;19.40;;;10.65;;
13269;SDS011;6703;51.994;7.570;2024-01-30T08:24:16;20.30;;;10.32;;
13269;SDS011;6703;51.994;7.570;2024-01-30T08:26:43;16.55;;;10.40;;
13269;SDS011;6703;51.994;7.570;2024-01-30T08:29:12;19.58;;;10.48;;
13269;SDS011;6703;51.994;7.570;2024-01-30T08:31:40;17.30;;;10.30;;
13269;SDS011;6703;51.994;7.570;2024-01-30T08:34:08;20.40;;;9.80;;
13269;SDS011;6703;51.994;7.570;2024-01-30T08:36:38;17.90;;;9.95;;
13269;SDS011;6703;51.994;7.570;2024-01-30T08:39:05;18.65;;;9.90;;
13269;SDS011;6703;51.994;7.570;2024-01-30T08:41:33;19.02;;;9.80;;
13269;SDS011;6703;51.994;7.570;2024-01-30T08:44:01;18.20;;;9.77;;
13269;SDS011;6703;51.994;7.570;2024-01-30T08:46:31;15.05;;;9.27;;
13269;SDS011;6703;51.994;7.570;2024-01-30T08:48:58;19.08;;;10.32;;
13269;SDS011;6703;51.994;7.570;2024-01-30T08:51:27;16.15;;;9.80;;
13269;SDS011;6703;51.994;7.570;2024-01-30T08:53:56;20.13;;;9.93;;
13269;SDS011;6703;51.994;7.570;2024-01-30T08:56:45;18.70;;;8.98;;
13269;SDS011;6703;51.994;7.570;2024-01-30T08:59:12;16.98;;;9.00;;
13269;SDS011;6703;51.994;7.570;2024-01-30T09:01:41;19.30;;;9.55;;
13269;SDS011;6703;51.994;7.570;2024-01-30T09:04:25;15.90;;;9.27;;
13269;SDS011;6703;51.994;7.570;2024-01-30T09:06:53;16.75;;;9.07;;
13269;SDS011;6703;51.994;7.570;2024-01-30T09:09:22;15.57;;;9.10;;
13269;SDS011;6703;51.994;7.570;2024-01-30T09:11:51;16.42;;;9.38;;
13269;SDS011;6703;51.994;7.570;2024-01-30T09:14:18;18.05;;;10.02;;
13269;SDS011;6703;51.994;7.570;2024-01-30T09:16:47;16.17;;;8.77;;
13269;SDS011;6703;51.994;7.570;2024-01-30T09:19:15;18.40;;;8.95;;
13269;SDS011;6703;51.994;7.570;2024-01-30T09:21:44;16.20;;;8.60;;
13269;SDS011;6703;51.994;7.570;2024-01-30T09:24:12;16.58;;;9.15;;
13269;SDS011;6703;51.994;7.570;2024-01-30T09:26:41;16.87;;;8.90;;
13269;SDS011;6703;51.994;7.570;2024-01-30T09:29:10;15.50;;;9.20;;
13269;SDS011;6703;51.994;7.570;2024-01-30T09:31:38;15.57;;;8.65;;
13269;SDS011;6703;51.994;7.570;2024-01-30T09:34:05;15.70;;;8.57;;
13269;SDS011;6703;51.994;7.570;2024-01-30T09:36:33;15.27;;;8.73;;
13269;SDS011;6703;51.994;7.570;2024-01-30T09:39:02;17.38;;;8.77;;
13269;SDS011;6703;51.994;7.570;2024-01-30T09:41:30;16.35;;;8.85;;
13269;SDS011;6703;51.994;7.570;2024-01-30T09:44:02;16.50;;;8.65;;
13269;SDS011;6703;51.994;7.570;2024-01-30T09:46:31;16.60;;;8.25;;
13269;SDS011;6703;51.994;7.570;2024-01-30T09:49:00;17.27;;;8.27;;
13269;SDS011;6703;51.994;7.570;2024-01-30T09:51:30;16.90;;;8.60;;
13269;SDS011;6703;51.994;7.570;2024-01-30T09:53:58;17.07;;;8.77;;
13269;SDS011;6703;51.994;7.570;2024-01-30T09:56:26;14.85;;;8.52;;
13269;SDS011;6703;51.994;7.570;2024-01-30T09:58:54;15.68;;;8.40;;
13269;SDS011;6703;51.994;7.570;2024-01-30T10:01:23;14.20;;;8.55;;
13269;SDS011;6703;51.994;7.570;2024-01-30T10:03:53;17.90;;;8.93;;
13269;SDS011;6703;51.994;7.570;2024-01-30T10:06:21;17.10;;;8.67;;
13269;SDS011;6703;51.994;7.570;2024-01-30T10:08:50;16.50;;;8.50;;
13269;SDS011;6703;51.994;7.570;2024-01-30T10:11:18;16.30;;;8.30;;
13269;SDS011;6703;51.994;7.570;2024-01-30T10:13:45;15.75;;;8.50;;
13269;SDS011;6703;51.994;7.570;2024-01-30T10:16:14;12.98;;;8.07;;
13269;SDS011;6703;51.994;7.570;2024-01-30T10:18:45;14.73;;;8.05;;
13269;SDS011;6703;51.994;7.570;2024-01-30T10:21:14;16.35;;;8.52;;
13269;SDS011;6703;51.994;7.570;2024-01-30T10:23:43;17.67;;;8.80;;
13269;SDS011;6703;51.994;7.570;2024-01-30T10:26:10;13.70;;;8.15;;
13269;SDS011;6703;51.994;7.570;2024-01-30T10:28:39;16.60;;;8.57;;
13269;SDS011;6703;51.994;7.570;2024-01-30T10:31:07;14.68;;;7.85;;
13269;SDS011;6703;51.994;7.570;2024-01-30T10:33:35;15.35;;;7.97;;
13269;SDS011;6703;51.994;7.570;2024-01-30T10:36:05;16.73;;;8.32;;
13269;SDS011;6703;51.994;7.570;2024-01-30T10:38:33;14.70;;;8.18;;
13269;SDS011;6703;51.994;7.570;2024-01-30T10:41:01;14.27;;;8.18;;
13269;SDS011;6703;51.994;7.570;2024-01-30T10:43:30;19.45;;;7.85;;
13269;SDS011;6703;51.994;7.570;2024-01-30T10:46:02;16.10;;;8.23;;
13269;SDS011;6703;51.994;7.570;2024-01-30T10:48:33;15.80;;;7.95;;
13269;SDS011;6703;51.994;7.570;2024-01-30T10:51:08;14.43;;;7.90;;
13269;SDS011;6703;51.994;7.570;2024-01-30T10:53:37;15.75;;;8.35;;
13269;SDS011;6703;51.994;7.570;2024-01-30T10:56:06;18.67;;;8.88;;
13269;SDS011;6703;51.994;7.570;2024-01-30T10:58:35;14.43;;;8.40;;
13269;SDS011;6703;51.994;7.570;2024-01-30T11:01:03;15.73;;;7.97;;
13269;SDS011;6703;51.994;7.570;2024-01-30T11:03:32;16.20;;;8.37;;
13269;SDS011;6703;51.994;7.570;2024-01-30T11:06:02;15.85;;;8.25;;
13269;SDS011;6703;51.994;7.570;2024-01-30T11:08:33;15.18;;;8.55;;
13269;SDS011;6703;51.994;7.570;2024-01-30T11:11:00;14.15;;;8.23;;
13269;SDS011;6703;51.994;7.570;2024-01-30T11:13:29;17.67;;;8.15;;
13269;SDS011;6703;51.994;7.570;2024-01-30T11:16:00;17.08;;;7.85;;
13269;SDS011;6703;51.994;7.570;2024-01-30T11:18:28;15.57;;;7.78;;
13269;SDS011;6703;51.994;7.570;2024-01-30T11:20:57;16.38;;;7.70;;
13269;SDS011;6703;51.994;7.570;2024-01-30T11:23:27;14.83;;;7.47;;
13269;SDS011;6703;51.994;7.570;2024-01-30T11:25:57;14.43;;;7.33;;
13269;SDS011;6703;51.994;7.570;2024-01-30T11:28:25;15.13;;;6.95;;
13269;SDS011;6703;51.994;7.570;2024-01-30T11:31:03;14.30;;;7.37;;
13269;SDS011;6703;51.994;7.570;2024-01-30T11:33:32;15.45;;;7.75;;
13269;SDS011;6703;51.994;7.570;2024-01-30T11:36:01;13.52;;;7.32;;
13269;SDS011;6703;51.994;7.570;2024-01-30T11:38:29;15.88;;;7.50;;
13269;SDS011;6703;51.994;7.570;2024-01-30T11:40:58;15.77;;;6.82;;
13269;SDS011;6703;51.994;7.570;2024-01-30T11:43:27;16.87;;;7.00;;
13269;SDS011;6703;51.994;7.570;2024-01-30T11:45:55;14.50;;;7.03;;
13269;SDS011;6703;51.994;7.570;2024-01-30T11:48:23;13.82;;;6.63;;
13269;SDS011;6703;51.994;7.570;2024-01-30T11:50:51;14.40;;;7.07;;
13269;SDS011;6703;51.994;7.570;2024-01-30T11:53:20;21.67;;;6.68;;
13269;SDS011;6703;51.994;7.570;2024-01-30T11:55:51;16.23;;;6.70;;
13269;SDS011;6703;51.994;7.570;2024-01-30T11:58:21;13.67;;;7.03;;
13269;SDS011;6703;51.994;7.570;2024-01-30T12:00:52;16.30;;;6.78;;
13269;SDS011;6703;51.994;7.570;2024-01-30T12:03:23;17.40;;;6.93;;
13269;SDS011;6703;51.994;7.570;2024-01-30T12:05:54;21.27;;;7.80;;
13269;SDS011;6703;51.994;7.570;2024-01-30T12:08:23;14.98;;;6.88;;
13269;SDS011;6703;51.994;7.570;2024-01-30T12:14:19;14.35;;;7.65;;
13269;SDS011;6703;51.994;7.570;2024-01-30T12:16:49;18.13;;;7.30;;
13269;SDS011;6703;51.994;7.570;2024-01-30T12:19:22;16.97;;;7.43;;
13269;SDS011;6703;51.994;7.570;2024-01-30T12:21:54;14.03;;;6.07;;
13269;SDS011;6703;51.994;7.570;2024-01-30T12:24:22;16.38;;;7.22;;
13269;SDS011;6703;51.994;7.570;2024-01-30T12:26:51;15.90;;;7.30;;
13269;SDS011;6703;51.994;7.570;2024-01-30T12:29:21;17.42;;;7.43;;
13269;SDS011;6703;51.994;7.570;2024-01-30T12:31:52;17.02;;;7.53;;
13269;SDS011;6703;51.994;7.570;2024-01-30T12:34:20;14.52;;;6.28;;
13269;SDS011;6703;51.994;7.570;2024-01-30T12:36:48;19.47;;;7.33;;
13269;SDS011;6703;51.994;7.570;2024-01-30T12:39:16;16.80;;;7.60;;
13269;SDS011;6703;51.994;7.570;2024-01-30T12:41:44;16.77;;;7.55;;
13269;SDS011;6703;51.994;7.570;2024-01-30T12:44:13;17.33;;;7.40;;
13269;SDS011;6703;51.994;7.570;2024-01-30T12:46:43;17.40;;;7.40;;
13269;SDS011;6703;51.994;7.570;2024-01-30T12:49:14;18.88;;;7.10;;
13269;SDS011;6703;51.994;7.570;2024-01-30T12:51:42;15.25;;;6.85;;
13269;SDS011;6703;51.994;7.570;2024-01-30T12:54:10;14.87;;;6.83;;
13269;SDS011;6703;51.994;7.570;2024-01-30T12:59:15;17.15;;;7.28;;
13269;SDS011;6703;51.994;7.570;2024-01-30T13:01:44;13.18;;;6.38;;
13269;SDS011;6703;51.994;7.570;2024-01-30T13:04:12;16.23;;;6.68;;
13269;SDS011;6703;51.994;7.570;2024-01-30T13:06:41;21.05;;;8.05;;
13269;SDS011;6703;51.994;7.570;2024-01-30T13:09:09;19.20;;;7.90;;
13269;SDS011;6703;51.994;7.570;2024-01-30T13:11:37;16.63;;;7.57;;
13269;SDS011;6703;51.994;7.570;2024-01-30T13:14:05;18.63;;;7.82;;
13269;SDS011;6703;51.994;7.570;2024-01-30T13:16:33;15.67;;;7.17;;
13269;SDS011;6703;51.994;7.570;2024-01-30T13:19:02;15.00;;;7.45;;
13269;SDS011;6703;51.994;7.570;2024-01-30T13:21:30;16.92;;;6.90;;
13269;SDS011;6703;51.994;7.570;2024-01-30T13:23:58;16.20;;;7.03;;
13269;SDS011;6703;51.994;7.570;2024-01-30T13:26:26;13.25;;;7.30;;
13269;SDS011;6703;51.994;7.570;2024-01-30T13:28:55;17.77;;;7.78;;
13269;SDS011;6703;51.994;7.570;2024-01-30T13:31:23;18.42;;;7.82;;
13269;SDS011;6703;51.994;7.570;2024-01-30T13:33:51;19.73;;;7.57;;
13269;SDS011;6703;51.994;7.570;2024-01-30T13:36:21;19.70;;;7.90;;
13269;SDS011;6703;51.994;7.570;2024-01-30T13:38:49;15.43;;;7.18;;
13269;SDS011;6703;51.994;7.570;2024-01-30T13:41:17;14.20;;;7.05;;
13269;SDS011;6703;51.994;7.570;2024-01-30T13:43:45;15.13;;;7.47;;
13269;SDS011;6703;51.994;7.570;2024-01-30T13:49:11;20.42;;;7.53;;
13269;SDS011;6703;51.994;7.570;2024-01-30T13:51:41;19.20;;;7.45;;
13269;SDS011;6703;51.994;7.570;2024-01-30T13:54:08;20.70;;;7.97;;
13269;SDS011;6703;51.994;7.570;2024-01-30T13:56:36;16.35;;;7.05;;
13269;SDS011;6703;51.994;7.570;2024-01-30T13:59:04;21.33;;;7.88;;
13269;SDS011;6703;51.994;7.570;2024-01-30T14:01:32;16.45;;;7.57;;
13269;SDS011;6703;51.994;7.570;2024-01-30T14:04:00;14.32;;;7.35;;
13269;SDS011;6703;51.994;7.570;2024-01-30T14:06:30;16.63;;;7.40;;
13269;SDS011;6703;51.994;7.570;2024-01-30T14:08:59;14.75;;;7.60;;
13269;SDS011;6703;51.994;7.570;2024-01-30T14:11:33;14.98;;;7.20;;
13269;SDS011;6703;51.994;7.570;2024-01-30T14:14:01;13.95;;;6.47;;
13269;SDS011;6703;51.994;7.570;2024-01-30T14:16:29;13.20;;;6.35;;
13269;SDS011;6703;51.994;7.570;2024-01-30T14:18:57;15.88;;;7.43;;
13269;SDS011;6703;51.994;7.570;2024-01-30T14:21:25;17.30;;;6.95;;
13269;SDS011;6703;51.994;7.570;2024-01-30T14:23:53;17.25;;;7.50;;
13269;SDS011;6703;51.994;7.570;2024-01-30T14:26:23;26.17;;;7.97;;
13269;SDS011;6703;51.994;7.570;2024-01-30T14:28:51;14.40;;;6.50;;
13269;SDS011;6703;51.994;7.570;2024-01-30T14:31:19;17.23;;;6.90;;
13269;SDS011;6703;51.994;7.570;2024-01-30T14:33:48;17.85;;;7.00;;
13269;SDS011;6703;51.994;7.570;2024-01-30T14:36:17;14.70;;;6.88;;
13269;SDS011;6703;51.994;7.570;2024-01-30T14:38:47;17.85;;;7.13;;
13269;SDS011;6703;51.994;7.570;2024-01-30T14:41:15;15.50;;;6.63;;
13269;SDS011;6703;51.994;7.570;2024-01-30T14:43:45;14.77;;;6.20;;
13269;SDS011;6703;51.994;7.570;2024-01-30T14:46:12;12.13;;;5.93;;
13269;SDS011;6703;51.994;7.570;2024-01-30T14:48:41;14.32;;;5.82;;
13269;SDS011;6703;51.994;7.570;2024-01-30T14:51:10;10.88;;;5.95;;
13269;SDS011;6703;51.994;7.570;2024-01-30T14:53:38;12.07;;;5.80;;
13269;SDS011;6703;51.994;7.570;2024-01-30T14:56:07;11.95;;;5.43;;
13269;SDS011;6703;51.994;7.570;2024-01-30T14:58:35;12.50;;;6.45;;
13269;SDS011;6703;51.994;7.570;2024-01-30T15:01:05;22.00;;;6.68;;
13269;SDS011;6703;51.994;7.570;2024-01-30T15:03:33;14.50;;;6.35;;
13269;SDS011;6703;51.994;7.570;2024-01-30T15:06:02;13.87;;;5.80;;